Time;durP1;ratioP1;P1;durP2;ratioP2;P2;SDS_P1;SDS_P2;PMS_P1;PMS_P2;Temp;Humidity;BMP_temperature;BMP_pressure;BME280_temperature;BME280_humidity;BME280_pressure;Samples;Min_cycle;Max_cycle;Signal;HPM_P1;HPM_P2
2021/12/20 00:01:40;;;;;;;10.77;2.75;;;;;;;;;;5139564;27;20046;-74
2021/12/20 00:04:07;;;;;;;10.15;2.47;;;;;;;;;;5158301;27;20046;-73
2021/12/20 00:06:34;;;;;;;11.15;2.50;;;;;;;;;;5139627;27;20041;-73
2021/12/20 00:09:02;;;;;;;12.75;2.17;;;;;;;;;;5158385;27;20035;-74
2021/12/20 00:11:29;;;;;;;11.25;2.35;;;;;;;;;;5158243;27;20018;-73
2021/12/20 00:13:56;;;;;;;15.30;2.60;;;;;;;;;;5139323;27;20030;-73
2021/12/20 00:16:23;;;;;;;12.75;2.80;;;;;;;;;;5158055;27;20458;-74
2021/12/20 00:18:51;;;;;;;9.48;2.58;;;;;;;;;;5158249;27;20023;-73
2021/12/20 00:21:18;;;;;;;10.45;2.00;;;;;;;;;;5158140;27;20050;-73
2021/12/20 00:23:46;;;;;;;11.27;2.15;;;;;;;;;;5139059;27;20015;-73
2021/12/20 00:26:13;;;;;;;10.50;2.25;;;;;;;;;;5139085;27;20050;-73
2021/12/20 00:28:40;;;;;;;16.33;3.60;;;;;;;;;;5139053;27;20517;-74
2021/12/20 00:31:07;;;;;;;12.23;2.50;;;;;;;;;;5139416;27;20019;-71
2021/12/20 00:33:34;;;;;;;10.75;1.90;;;;;;;;;;5157971;27;20367;-73
2021/12/20 00:36:06;;;;;;;9.23;2.15;;;;;;;;;;5157727;27;20549;-73
2021/12/20 00:41:20;;;;;;;9.43;2.63;;;;;;;;;;5157872;27;20033;-73
2021/12/20 00:43:47;;;;;;;9.43;2.40;;;;;;;;;;5138767;27;20120;-74
2021/12/20 00:46:14;;;;;;;12.93;2.67;;;;;;;;;;5157641;27;20054;-73
2021/12/20 00:48:41;;;;;;;10.23;2.45;;;;;;;;;;5138862;27;20120;-72
2021/12/20 00:51:09;;;;;;;13.05;2.53;;;;;;;;;;5157340;27;20022;-73
2021/12/20 00:53:36;;;;;;;13.52;2.42;;;;;;;;;;5138536;27;20524;-73
2021/12/20 00:56:03;;;;;;;10.95;2.80;;;;;;;;;;5157193;27;20124;-73
2021/12/20 00:58:30;;;;;;;14.27;2.63;;;;;;;;;;5138499;27;20015;-73
2021/12/20 01:00:58;;;;;;;10.85;2.33;;;;;;;;;;5157319;27;20022;-73
2021/12/20 01:03:26;;;;;;;9.82;2.10;;;;;;;;;;5137413;27;20474;-74
2021/12/20 01:05:53;;;;;;;9.85;2.05;;;;;;;;;;5138640;27;20110;-74
2021/12/20 01:08:21;;;;;;;7.72;1.75;;;;;;;;;;5138431;27;20026;-74
2021/12/20 01:10:52;;;;;;;12.25;2.33;;;;;;;;;;5138096;27;20031;-73
2021/12/20 01:13:21;;;;;;;10.27;2.53;;;;;;;;;;5138611;27;20019;-74
2021/12/20 01:15:52;;;;;;;11.52;2.15;;;;;;;;;;5138018;27;20041;-74
2021/12/20 01:18:20;;;;;;;10.23;2.17;;;;;;;;;;5138176;27;20482;-74
2021/12/20 01:20:47;;;;;;;12.10;2.38;;;;;;;;;;5156971;27;20083;-74
2021/12/20 01:23:15;;;;;;;8.10;2.00;;;;;;;;;;5156915;27;20056;-73
2021/12/20 01:25:42;;;;;;;12.90;2.72;;;;;;;;;;5156769;27;20042;-73
2021/12/20 01:28:10;;;;;;;12.85;2.22;;;;;;;;;;5138087;27;20083;-74
2021/12/20 01:30:37;;;;;;;9.23;2.15;;;;;;;;;;5137897;27;20482;-74
2021/12/20 01:33:09;;;;;;;7.40;1.73;;;;;;;;;;5156758;27;20389;-74
2021/12/20 01:35:39;;;;;;;10.82;2.17;;;;;;;;;;5156634;27;20019;-73
2021/12/20 01:38:07;;;;;;;6.70;2.08;;;;;;;;;;5137150;27;20034;-73
2021/12/20 01:40:37;;;;;;;8.70;2.00;;;;;;;;;;5156570;27;20010;-73
2021/12/20 01:43:07;;;;;;;9.10;2.55;;;;;;;;;;5156651;27;20381;-73
2021/12/20 01:45:34;;;;;;;7.73;1.93;;;;;;;;;;5137677;27;20019;-73
2021/12/20 01:48:05;;;;;;;13.07;2.65;;;;;;;;;;5137775;27;20046;-73
2021/12/20 01:53:11;;;;;;;;;;;;;;;;;;5156598;27;20137;-73
2021/12/20 01:55:38;;;;;;;11.85;2.40;;;;;;;;;;5156358;27;19927;-73
2021/12/20 01:58:06;;;;;;;9.25;1.90;;;;;;;;;;5156168;27;20466;-74
2021/12/20 02:00:34;;;;;;;7.85;2.30;;;;;;;;;;5137351;27;20577;-74
2021/12/20 02:03:03;;;;;;;8.55;1.90;;;;;;;;;;5137160;27;20023;-73
2021/12/20 02:08:42;;;;;;;9.57;2.15;;;;;;;;;;5155990;27;20486;-74
2021/12/20 02:11:09;;;;;;;10.20;2.20;;;;;;;;;;5152664;27;20118;-74
2021/12/20 02:13:36;;;;;;;9.95;2.30;;;;;;;;;;5155949;27;20015;-74
2021/12/20 02:16:04;;;;;;;11.15;2.70;;;;;;;;;;5155382;27;20025;-73
2021/12/20 02:18:32;;;;;;;10.27;1.85;;;;;;;;;;5155689;27;20019;-73
2021/12/20 02:20:59;;;;;;;10.65;1.92;;;;;;;;;;5136814;27;20478;-74
2021/12/20 02:23:27;;;;;;;8.07;2.22;;;;;;;;;;5155679;27;20015;-72
2021/12/20 02:25:54;;;;;;;12.18;2.22;;;;;;;;;;5155771;27;20023;-74
2021/12/20 02:28:23;;;;;;;12.98;2.28;;;;;;;;;;5136993;27;20045;-74
2021/12/20 02:38:47;;;;;;;11.07;1.83;;;;;;;;;;5155392;27;20041;-73
2021/12/20 02:41:16;;;;;;;11.20;2.08;;;;;;;;;;5155350;27;20041;-73
2021/12/20 02:43:51;;;;;;;10.38;1.98;;;;;;;;;;5136685;27;20015;-74
2021/12/20 02:49:06;;;;;;;9.80;2.17;;;;;;;;;;5155105;27;20541;-74
2021/12/20 02:51:33;;;;;;;7.07;1.60;;;;;;;;;;5136225;27;20094;-74
2021/12/20 02:54:01;;;;;;;6.90;1.42;;;;;;;;;;5154906;27;20098;-74
2021/12/20 02:56:28;;;;;;;12.05;2.08;;;;;;;;;;5155067;27;20033;-73
2021/12/20 02:58:55;;;;;;;10.05;1.60;;;;;;;;;;5136412;27;20394;-74
2021/12/20 03:01:22;;;;;;;7.07;1.83;;;;;;;;;;5136189;27;20052;-74
2021/12/20 03:03:51;;;;;;;7.97;2.08;;;;;;;;;;5135766;27;20046;-74
2021/12/20 03:06:19;;;;;;;10.80;2.53;;;;;;;;;;5154955;27;20542;-74
2021/12/20 03:08:50;;;;;;;14.70;2.63;;;;;;;;;;5155014;27;20034;-74
2021/12/20 03:11:18;;;;;;;10.68;2.55;;;;;;;;;;5154893;27;20015;-74
2021/12/20 03:13:48;;;;;;;9.48;2.20;;;;;;;;;;5136007;27;20019;-75
2021/12/20 03:16:15;;;;;;;7.93;2.05;;;;;;;;;;5136215;27;20062;-75
2021/12/20 03:18:43;;;;;;;12.13;2.38;;;;;;;;;;5154697;27;20025;-74
2021/12/20 03:21:10;;;;;;;11.10;2.13;;;;;;;;;;5155166;27;20071;-74
2021/12/20 03:23:37;;;;;;;9.32;1.83;;;;;;;;;;5154795;27;20030;-75
2021/12/20 03:26:04;;;;;;;10.13;1.90;;;;;;;;;;5154414;27;20023;-74
2021/12/20 03:28:31;;;;;;;9.27;2.70;;;;;;;;;;5154544;27;20030;-74
2021/12/20 03:30:58;;;;;;;11.77;2.50;;;;;;;;;;5154581;27;20066;-74
2021/12/20 03:33:26;;;;;;;12.60;2.53;;;;;;;;;;5154640;27;20107;-75
2021/12/20 03:35:53;;;;;;;8.10;2.28;;;;;;;;;;5154358;27;20155;-75
2021/12/20 03:38:20;;;;;;;10.93;2.45;;;;;;;;;;5154666;27;20063;-74
2021/12/20 03:40:47;;;;;;;10.70;2.13;;;;;;;;;;5154508;27;20406;-75
2021/12/20 03:43:17;;;;;;;12.40;2.22;;;;;;;;;;5135698;27;20102;-75
2021/12/20 03:45:48;;;;;;;;;;;;;;;;;;5154822;27;20389;-75
2021/12/20 03:48:16;;;;;;;8.63;2.25;;;;;;;;;;5135985;27;19943;-75
2021/12/20 03:50:43;;;;;;;9.65;2.13;;;;;;;;;;5135534;27;20031;-76
2021/12/20 03:53:10;;;;;;;11.98;2.38;;;;;;;;;;5135566;27;20050;-75
2021/12/20 03:55:37;;;;;;;11.48;2.47;;;;;;;;;;5135739;27;20044;-75
2021/12/20 03:58:05;;;;;;;12.65;2.55;;;;;;;;;;5154376;27;20065;-76
2021/12/20 04:00:33;;;;;;;8.10;2.05;;;;;;;;;;5135392;27;20025;-75
2021/12/20 04:03:03;;;;;;;9.18;2.63;;;;;;;;;;5154367;27;20027;-75
2021/12/20 04:05:30;;;;;;;9.57;2.03;;;;;;;;;;5154343;27;20015;-75
2021/12/20 04:07:57;;;;;;;10.27;2.67;;;;;;;;;;5154415;27;20027;-75
2021/12/20 04:10:24;;;;;;;9.00;1.75;;;;;;;;;;5154138;27;20019;-75
2021/12/20 04:12:52;;;;;;;8.85;2.20;;;;;;;;;;5154174;27;20019;-75
2021/12/20 04:15:19;;;;;;;7.20;1.75;;;;;;;;;;5154048;27;20070;-75
2021/12/20 04:17:46;;;;;;;10.10;2.38;;;;;;;;;;5154449;27;20015;-75
2021/12/20 04:20:13;;;;;;;11.85;2.20;;;;;;;;;;5135716;27;20457;-75
2021/12/20 04:22:40;;;;;;;11.32;2.28;;;;;;;;;;5154187;27;20470;-75
2021/12/20 04:25:08;;;;;;;9.07;2.22;;;;;;;;;;5154073;27;20098;-75
2021/12/20 04:27:35;;;;;;;11.55;2.33;;;;;;;;;;5154134;27;20084;-74
2021/12/20 04:30:09;;;;;;;12.15;2.45;;;;;;;;;;5135315;27;20109;-75
2021/12/20 04:32:41;;;;;;;14.02;2.25;;;;;;;;;;5153745;27;20030;-75
2021/12/20 04:35:09;;;;;;;12.03;2.47;;;;;;;;;;5154041;27;20131;-75
2021/12/20 04:37:37;;;;;;;10.32;2.25;;;;;;;;;;5154252;27;20799;-75
2021/12/20 04:40:08;;;;;;;10.48;2.10;;;;;;;;;;5157901;27;20023;-75
2021/12/20 04:42:35;;;;;;;8.95;2.70;;;;;;;;;;5157825;27;20019;-75
2021/12/20 04:45:03;;;;;;;11.82;2.30;;;;;;;;;;5157705;27;20014;-75
2021/12/20 04:47:30;;;;;;;12.05;2.28;;;;;;;;;;5138917;27;20023;-75
2021/12/20 04:49:57;;;;;;;11.90;2.38;;;;;;;;;;5138837;27;20015;-75
2021/12/20 04:52:25;;;;;;;8.70;2.20;;;;;;;;;;5157259;27;20115;-75
2021/12/20 04:54:52;;;;;;;9.75;2.08;;;;;;;;;;5138648;27;20019;-76
2021/12/20 04:57:19;;;;;;;8.63;2.00;;;;;;;;;;5157350;27;20027;-76
2021/12/20 04:59:46;;;;;;;11.02;2.88;;;;;;;;;;5157509;27;20035;-73
2021/12/20 05:02:13;;;;;;;12.05;2.50;;;;;;;;;;5157328;27;20038;-75
2021/12/20 05:04:42;;;;;;;11.20;2.25;;;;;;;;;;5138359;27;20026;-75
2021/12/20 05:07:09;;;;;;;10.88;2.80;;;;;;;;;;5138318;27;20163;-75
2021/12/20 05:09:39;;;;;;;10.85;2.65;;;;;;;;;;5138589;27;20023;-74
2021/12/20 05:12:14;;;;;;;13.15;2.75;;;;;;;;;;5157213;27;20043;-75
2021/12/20 05:14:43;;;;;;;11.70;2.80;;;;;;;;;;5157269;27;20029;-75
2021/12/20 05:17:11;;;;;;;13.00;2.60;;;;;;;;;;5157005;27;20071;-75
2021/12/20 05:19:38;;;;;;;12.23;2.88;;;;;;;;;;5138458;27;20038;-75
2021/12/20 05:22:06;;;;;;;11.25;2.33;;;;;;;;;;5156870;27;20388;-74
2021/12/20 05:24:33;;;;;;;9.30;2.05;;;;;;;;;;5138307;27;20459;-74
2021/12/20 05:27:00;;;;;;;12.02;2.65;;;;;;;;;;5156826;27;20363;-73
2021/12/20 05:29:28;;;;;;;8.25;2.40;;;;;;;;;;5156851;27;20043;-74
2021/12/20 05:31:55;;;;;;;10.48;2.42;;;;;;;;;;5156837;27;20018;-74
2021/12/20 05:34:22;;;;;;;10.93;2.72;;;;;;;;;;5138179;27;20482;-74
2021/12/20 05:36:49;;;;;;;11.00;2.58;;;;;;;;;;5156698;27;20094;-74
2021/12/20 05:39:17;;;;;;;9.48;2.20;;;;;;;;;;5137550;27;20395;-74
2021/12/20 05:41:44;;;;;;;14.60;3.03;;;;;;;;;;5137622;27;20023;-74
2021/12/20 05:44:11;;;;;;;10.00;2.30;;;;;;;;;;5137993;27;20343;-74
2021/12/20 05:46:38;;;;;;;11.50;2.55;;;;;;;;;;5138101;27;20394;-74
2021/12/20 05:49:05;;;;;;;11.85;2.45;;;;;;;;;;5156163;27;20022;-74
2021/12/20 05:51:32;;;;;;;9.88;2.00;;;;;;;;;;5156327;27;20019;-74
2021/12/20 05:54:00;;;;;;;10.70;2.35;;;;;;;;;;5156105;27;20056;-74
2021/12/20 05:56:27;;;;;;;9.30;2.10;;;;;;;;;;5156476;27;20364;-74
2021/12/20 05:58:54;;;;;;;13.82;2.38;;;;;;;;;;5156379;27;20025;-74
2021/12/20 06:01:21;;;;;;;9.80;2.17;;;;;;;;;;5137513;27;20019;-75
2021/12/20 06:03:48;;;;;;;13.48;1.95;;;;;;;;;;5137114;27;20057;-75
2021/12/20 06:06:16;;;;;;;9.82;2.28;;;;;;;;;;5137160;27;20497;-74
2021/12/20 06:08:43;;;;;;;12.40;2.60;;;;;;;;;;5137199;27;20026;-75
2021/12/20 06:11:10;;;;;;;10.82;2.03;;;;;;;;;;5137458;27;20023;-75
2021/12/20 06:13:37;;;;;;;8.23;1.83;;;;;;;;;;5155914;27;20026;-75
2021/12/20 06:16:04;;;;;;;10.07;2.10;;;;;;;;;;5156071;27;20057;-74
2021/12/20 06:18:31;;;;;;;9.85;2.22;;;;;;;;;;5136896;27;20018;-75
2021/12/20 06:20:58;;;;;;;8.75;2.00;;;;;;;;;;5155752;27;20363;-75
2021/12/20 06:23:26;;;;;;;6.85;2.05;;;;;;;;;;5155758;27;20015;-74
2021/12/20 06:25:53;;;;;;;8.05;2.03;;;;;;;;;;5136796;27;20030;-74
2021/12/20 06:28:20;;;;;;;8.82;1.83;;;;;;;;;;5155710;27;20494;-75
2021/12/20 06:30:48;;;;;;;4.75;1.55;;;;;;;;;;5155685;27;20023;-74
2021/12/20 06:33:15;;;;;;;8.75;2.05;;;;;;;;;;5155659;27;20022;-74
2021/12/20 06:35:42;;;;;;;7.28;1.92;;;;;;;;;;5136953;27;20555;-74
2021/12/20 06:38:12;;;;;;;7.25;1.90;;;;;;;;;;5155520;27;20098;-74
2021/12/20 06:40:39;;;;;;;7.25;1.50;;;;;;;;;;5136547;27;20098;-74
2021/12/20 06:43:06;;;;;;;6.65;2.17;;;;;;;;;;5155394;27;20048;-74
2021/12/20 06:45:34;;;;;;;7.88;2.00;;;;;;;;;;5155314;27;20019;-74
2021/12/20 06:48:02;;;;;;;8.00;1.90;;;;;;;;;;5155275;27;20444;-74
2021/12/20 06:50:29;;;;;;;6.53;1.63;;;;;;;;;;5155249;27;20078;-75
2021/12/20 06:52:56;;;;;;;7.50;1.88;;;;;;;;;;5155151;27;20060;-75
2021/12/20 06:55:24;;;;;;;7.43;1.80;;;;;;;;;;5136443;27;20018;-74
2021/12/20 06:57:51;;;;;;;9.30;2.22;;;;;;;;;;5136702;27;20071;-75
2021/12/20 07:00:18;;;;;;;6.82;1.65;;;;;;;;;;5136413;27;20424;-75
2021/12/20 07:02:45;;;;;;;8.27;2.33;;;;;;;;;;5135271;27;20026;-75
2021/12/20 07:05:12;;;;;;;9.38;2.08;;;;;;;;;;5154711;27;20019;-75
2021/12/20 07:07:40;;;;;;;10.88;1.73;;;;;;;;;;5154822;27;20026;-75
2021/12/20 07:10:07;;;;;;;7.78;2.10;;;;;;;;;;5154922;27;20584;-74
2021/12/20 07:12:36;;;;;;;7.65;1.80;;;;;;;;;;5154971;27;20018;-76
2021/12/20 07:15:04;;;;;;;12.60;2.60;;;;;;;;;;5154837;27;20027;-74
2021/12/20 07:17:31;;;;;;;10.75;2.60;;;;;;;;;;5136000;27;20393;-73
2021/12/20 07:19:58;;;;;;;9.30;2.80;;;;;;;;;;5154887;27;20088;-74
2021/12/20 07:22:25;;;;;;;12.52;2.70;;;;;;;;;;5136014;27;20126;-75
2021/12/20 07:24:53;;;;;;;10.30;2.40;;;;;;;;;;5135755;27;20018;-75
2021/12/20 07:27:20;;;;;;;11.30;2.35;;;;;;;;;;5154895;27;20023;-74
2021/12/20 07:29:47;;;;;;;11.63;2.50;;;;;;;;;;5154748;27;20011;-74
2021/12/20 07:32:14;;;;;;;11.38;2.30;;;;;;;;;;5154694;27;20040;-74
2021/12/20 07:34:42;;;;;;;9.80;2.28;;;;;;;;;;5135904;27;20067;-74
2021/12/20 07:37:09;;;;;;;11.63;2.80;;;;;;;;;;5136263;27;20500;-74
2021/12/20 07:39:36;;;;;;;14.73;2.88;;;;;;;;;;5155001;27;20019;-75
2021/12/20 07:42:04;;;;;;;14.10;3.05;;;;;;;;;;5154723;27;20015;-74
2021/12/20 07:44:31;;;;;;;14.43;3.05;;;;;;;;;;5154839;27;20014;-74
2021/12/20 07:46:58;;;;;;;12.88;2.65;;;;;;;;;;5135980;27;20121;-75
2021/12/20 07:49:25;;;;;;;16.73;3.65;;;;;;;;;;5154592;27;20532;-76
2021/12/20 07:51:53;;;;;;;14.40;2.65;;;;;;;;;;5135943;27;20436;-75
2021/12/20 07:54:21;;;;;;;11.88;3.05;;;;;;;;;;5155266;27;20038;-75
2021/12/20 07:56:48;;;;;;;12.88;2.50;;;;;;;;;;5136188;27;20030;-75
2021/12/20 07:59:15;;;;;;;14.45;2.92;;;;;;;;;;5136208;27;20148;-74
2021/12/20 08:01:42;;;;;;;13.20;2.90;;;;;;;;;;5136111;27;20382;-74
2021/12/20 08:04:09;;;;;;;13.57;2.95;;;;;;;;;;5135809;27;20023;-74
2021/12/20 08:06:37;;;;;;;11.60;2.53;;;;;;;;;;5135663;27;20152;-74
2021/12/20 08:09:05;;;;;;;12.70;2.90;;;;;;;;;;5136014;27;20105;-75
2021/12/20 08:11:34;;;;;;;19.50;3.92;;;;;;;;;;5154428;27;20019;-75
2021/12/20 08:14:01;;;;;;;14.02;2.95;;;;;;;;;;5138387;27;20543;-74
2021/12/20 08:16:29;;;;;;;13.55;3.20;;;;;;;;;;5139789;27;20031;-73
2021/12/20 08:18:56;;;;;;;15.05;3.40;;;;;;;;;;5158540;27;20019;-75
2021/12/20 08:21:23;;;;;;;18.88;3.90;;;;;;;;;;5158372;27;20026;-75
2021/12/20 08:23:51;;;;;;;13.30;3.53;;;;;;;;;;5158413;27;20014;-75
2021/12/20 08:26:18;;;;;;;14.55;2.83;;;;;;;;;;5158336;27;20031;-76
2021/12/20 08:28:45;;;;;;;12.65;2.85;;;;;;;;;;5139552;27;20026;-75
2021/12/20 08:31:13;;;;;;;15.73;3.22;;;;;;;;;;5139649;27;20119;-75
2021/12/20 08:33:40;;;;;;;13.27;2.92;;;;;;;;;;5158085;27;20436;-75
2021/12/20 08:36:10;;;;;;;14.48;3.03;;;;;;;;;;5158223;27;20390;-75
2021/12/20 08:38:37;;;;;;;16.48;3.50;;;;;;;;;;5158118;27;20014;-75
2021/12/20 08:41:04;;;;;;;13.18;3.03;;;;;;;;;;5158068;27;20014;-75
2021/12/20 08:43:32;;;;;;;12.55;2.65;;;;;;;;;;5158142;27;20018;-76
2021/12/20 08:46:02;;;;;;;18.20;3.28;;;;;;;;;;5158771;27;20482;-75
2021/12/20 08:48:30;;;;;;;12.48;3.42;;;;;;;;;;5139783;27;20110;-76
2021/12/20 08:50:58;;;;;;;15.60;3.08;;;;;;;;;;5139982;27;20038;-75
2021/12/20 08:53:25;;;;;;;18.55;3.47;;;;;;;;;;5139320;27;20039;-75
2021/12/20 08:55:52;;;;;;;17.27;3.40;;;;;;;;;;5139367;27;20027;-75
2021/12/20 08:58:21;;;;;;;17.50;4.00;;;;;;;;;;5157955;27;20474;-75
2021/12/20 09:00:48;;;;;;;15.25;3.22;;;;;;;;;;5157732;27;20102;-75
2021/12/20 09:03:15;;;;;;;19.63;3.42;;;;;;;;;;5138567;27;20051;-75
2021/12/20 09:05:42;;;;;;;19.52;3.03;;;;;;;;;;5158145;27;20471;-75
2021/12/20 09:08:10;;;;;;;15.57;3.30;;;;;;;;;;5157889;27;20019;-75
2021/12/20 09:10:38;;;;;;;20.85;4.75;;;;;;;;;;5157938;27;20079;-75
2021/12/20 09:13:06;;;;;;;17.23;3.13;;;;;;;;;;5157994;27;20054;-76
2021/12/20 09:15:33;;;;;;;17.23;3.75;;;;;;;;;;5157300;27;20101;-75
2021/12/20 09:18:01;;;;;;;14.60;3.00;;;;;;;;;;5138566;27;20015;-73
2021/12/20 09:20:29;;;;;;;14.80;3.78;;;;;;;;;;5157197;27;20023;-74
2021/12/20 09:23:07;;;;;;;15.73;3.10;;;;;;;;;;5157040;27;20076;-74
2021/12/20 09:25:37;;;;;;;14.13;2.95;;;;;;;;;;5156180;27;20030;-73
2021/12/20 09:28:08;;;;;;;10.88;2.65;;;;;;;;;;5138274;27;20077;-74
2021/12/20 09:30:35;;;;;;;13.70;3.13;;;;;;;;;;5139315;27;20026;-74
2021/12/20 09:33:04;;;;;;;15.82;3.42;;;;;;;;;;5137996;27;20023;-74
2021/12/20 09:35:32;;;;;;;15.73;3.22;;;;;;;;;;5138350;27;20033;-75
2021/12/20 09:37:59;;;;;;;17.98;3.30;;;;;;;;;;5138159;27;20019;-75
2021/12/20 09:40:36;;;;;;;11.68;2.72;;;;;;;;;;5137941;27;20026;-75
2021/12/20 09:43:06;;;;;;;13.85;3.47;;;;;;;;;;5156876;27;20011;-74
2021/12/20 09:45:34;;;;;;;13.48;3.00;;;;;;;;;;5138543;27;20019;-76
2021/12/20 09:48:01;;;;;;;14.18;3.25;;;;;;;;;;5138406;27;20047;-75
2021/12/20 09:50:29;;;;;;;14.30;3.65;;;;;;;;;;5157332;27;20027;-74
2021/12/20 09:52:57;;;;;;;15.63;3.50;;;;;;;;;;5157167;27;20043;-74
2021/12/20 09:55:24;;;;;;;15.20;3.83;;;;;;;;;;5138598;27;20479;-74
2021/12/20 09:57:51;;;;;;;16.48;3.75;;;;;;;;;;5138945;27;20019;-74
2021/12/20 10:00:21;;;;;;;9.88;2.63;;;;;;;;;;5157199;27;20447;-74
2021/12/20 10:02:49;;;;;;;12.98;3.67;;;;;;;;;;5157332;27;20023;-74
2021/12/20 10:05:17;;;;;;;8.57;3.08;;;;;;;;;;5157241;27;20134;-74
2021/12/20 10:07:50;;;;;;;12.10;3.13;;;;;;;;;;5138889;27;20026;-75
2021/12/20 10:10:37;;;;;;;11.55;3.00;;;;;;;;;;5139435;27;20046;-76
2021/12/20 10:13:05;;;;;;;11.50;2.78;;;;;;;;;;5122632;27;20490;-74
2021/12/20 10:15:39;;;;;;;20.05;3.58;;;;;;;;;;5156933;27;20102;-74
2021/12/20 10:18:12;;;;;;;12.55;2.67;;;;;;;;;;5137753;27;20470;-73
2021/12/20 10:20:39;;;;;;;7.47;2.33;;;;;;;;;;5138034;27;20431;-74
2021/12/20 10:23:18;;;;;;;13.63;3.15;;;;;;;;;;5156953;27;20018;-74
2021/12/20 10:25:46;;;;;;;10.35;3.15;;;;;;;;;;5138014;27;20109;-74
2021/12/20 10:28:15;;;;;;;12.13;3.05;;;;;;;;;;5157038;27;20370;-75
2021/12/20 10:30:45;;;;;;;11.32;2.80;;;;;;;;;;5137572;27;20023;-75
2021/12/20 10:33:14;;;;;;;12.10;2.78;;;;;;;;;;5157047;27;20475;-75
2021/12/20 10:35:46;;;;;;;11.88;2.63;;;;;;;;;;5156671;27;20110;-75
2021/12/20 10:38:20;;;;;;;13.15;3.33;;;;;;;;;;5138392;27;20022;-74
2021/12/20 10:40:52;;;;;;;13.30;3.15;;;;;;;;;;5156305;27;20022;-74
2021/12/20 10:43:23;;;;;;;14.07;3.33;;;;;;;;;;5159836;27;20048;-76
2021/12/20 10:45:54;;;;;;;11.60;2.95;;;;;;;;;;5137812;27;20090;-73
2021/12/20 10:48:21;;;;;;;11.98;3.08;;;;;;;;;;5138648;27;20030;-75
2021/12/20 10:50:49;;;;;;;9.57;2.70;;;;;;;;;;5139917;27;20034;-75
2021/12/20 10:53:16;;;;;;;13.48;3.15;;;;;;;;;;5138502;27;20039;-74
2021/12/20 10:55:45;;;;;;;13.02;3.22;;;;;;;;;;5137570;27;20452;-73
2021/12/20 10:58:28;;;;;;;9.45;2.72;;;;;;;;;;5137226;27;20023;-73
2021/12/20 11:01:04;;;;;;;11.82;3.20;;;;;;;;;;5137532;27;20030;-74
2021/12/20 11:03:42;;;;;;;8.98;2.80;;;;;;;;;;5137122;27;20034;-73
2021/12/20 11:09:04;;;;;;;8.20;3.00;;;;;;;;;;5156426;27;20505;-74
2021/12/20 11:11:36;;;;;;;10.95;3.35;;;;;;;;;;5156230;27;20019;-72
2021/12/20 11:14:05;;;;;;;9.70;2.58;;;;;;;;;;5155579;27;20022;-73
2021/12/20 11:16:37;;;;;;;10.90;2.83;;;;;;;;;;5155253;27;20071;-73
2021/12/20 11:19:11;;;;;;;10.30;2.85;;;;;;;;;;5155009;27;20019;-73
2021/12/20 11:21:39;;;;;;;7.38;2.55;;;;;;;;;;5136025;27;20027;-74
2021/12/20 11:24:14;;;;;;;10.88;2.65;;;;;;;;;;5136215;27;20022;-74
2021/12/20 11:26:42;;;;;;;11.38;2.55;;;;;;;;;;5154785;27;20053;-73
2021/12/20 11:29:10;;;;;;;8.25;2.40;;;;;;;;;;5155082;27;20029;-72
2021/12/20 11:31:37;;;;;;;11.23;2.67;;;;;;;;;;5136214;27;20475;-73
2021/12/20 11:34:05;;;;;;;10.50;2.70;;;;;;;;;;5154707;27;20019;-73
2021/12/20 11:36:32;;;;;;;8.13;2.35;;;;;;;;;;5154650;27;20032;-73
2021/12/20 11:38:59;;;;;;;9.15;3.10;;;;;;;;;;5135982;27;20067;-74
2021/12/20 11:41:27;;;;;;;10.98;2.50;;;;;;;;;;5136289;27;20022;-74
2021/12/20 11:44:00;;;;;;;8.50;2.40;;;;;;;;;;5154965;27;20477;-74
2021/12/20 11:46:33;;;;;;;12.73;3.42;;;;;;;;;;5135963;27;20019;-74
2021/12/20 11:49:01;;;;;;;9.43;2.40;;;;;;;;;;5138609;27;20393;-73
2021/12/20 11:51:28;;;;;;;15.88;3.13;;;;;;;;;;5140102;27;20031;-75
2021/12/20 11:53:55;;;;;;;8.90;2.70;;;;;;;;;;5158863;27;20050;-74
2021/12/20 11:56:36;;;;;;;13.00;3.20;;;;;;;;;;5158639;27;20019;-74
2021/12/20 11:59:04;;;;;;;15.68;3.05;;;;;;;;;;5139780;27;20394;-74
2021/12/20 12:01:32;;;;;;;10.23;2.70;;;;;;;;;;5158839;27;20467;-75
2021/12/20 12:03:59;;;;;;;12.13;3.80;;;;;;;;;;5140165;27;20510;-75
2021/12/20 12:06:31;;;;;;;8.63;3.13;;;;;;;;;;5158907;27;20019;-75
2021/12/20 12:08:59;;;;;;;11.00;3.20;;;;;;;;;;5140219;27;20035;-75
2021/12/20 12:11:26;;;;;;;11.10;3.13;;;;;;;;;;5158761;27;20022;-74
2021/12/20 12:14:03;;;;;;;9.10;2.53;;;;;;;;;;5158580;27;20071;-75
2021/12/20 12:16:48;;;;;;;11.05;3.08;;;;;;;;;;5140000;27;20022;-74
2021/12/20 12:19:35;;;;;;;11.52;3.47;;;;;;;;;;5139850;27;20102;-74
2021/12/20 12:22:02;;;;;;;9.85;2.83;;;;;;;;;;5158539;27;20018;-74
2021/12/20 12:24:46;;;;;;;9.35;2.90;;;;;;;;;;5158441;27;20411;-75
2021/12/20 12:27:20;;;;;;;10.05;3.40;;;;;;;;;;5158308;27;20018;-73
2021/12/20 12:29:47;;;;;;;11.20;3.30;;;;;;;;;;5139465;27;20109;-73
2021/12/20 12:32:14;;;;;;;10.00;3.03;;;;;;;;;;5140067;27;20372;-73
2021/12/20 12:34:44;;;;;;;9.10;2.97;;;;;;;;;;5158294;27;20067;-73
2021/12/20 12:37:36;;;;;;;11.53;3.30;;;;;;;;;;5158179;27;20014;-73
2021/12/20 12:40:23;;;;;;;7.35;2.90;;;;;;;;;;5139520;27;20018;-72
2021/12/20 12:42:55;;;;;;;11.32;3.17;;;;;;;;;;5139272;27;20106;-73
2021/12/20 12:45:45;;;;;;;8.93;3.10;;;;;;;;;;5139630;27;20442;-74
2021/12/20 12:48:31;;;;;;;14.00;4.55;;;;;;;;;;5126628;27;20034;-74
2021/12/20 12:50:58;;;;;;;10.32;3.10;;;;;;;;;;5158050;27;20032;-74
2021/12/20 12:53:38;;;;;;;11.30;3.67;;;;;;;;;;5139000;27;20070;-73
2021/12/20 12:56:24;;;;;;;9.23;2.85;;;;;;;;;;5138977;27;20055;-73
2021/12/20 12:59:09;;;;;;;13.18;2.83;;;;;;;;;;5139108;27;20558;-74
2021/12/20 13:01:38;;;;;;;8.75;2.78;;;;;;;;;;5139227;27;20096;-73
2021/12/20 13:04:05;;;;;;;9.98;3.00;;;;;;;;;;5157674;27;20015;-74
2021/12/20 13:06:33;;;;;;;9.40;3.00;;;;;;;;;;5138691;27;20023;-74
2021/12/20 13:09:00;;;;;;;9.40;3.08;;;;;;;;;;5157617;27;20023;-73
2021/12/20 13:11:30;;;;;;;11.13;2.90;;;;;;;;;;5157614;27;20183;-74
2021/12/20 13:14:08;;;;;;;8.80;3.13;;;;;;;;;;5139040;27;20022;-73
2021/12/20 13:16:38;;;;;;;13.90;3.72;;;;;;;;;;5138556;27;20027;-74
2021/12/20 13:19:06;;;;;;;11.10;2.80;;;;;;;;;;5138312;27;20101;-73
2021/12/20 13:21:49;;;;;;;8.00;3.25;;;;;;;;;;5138684;27;20818;-73
2021/12/20 13:24:17;;;;;;;10.27;3.67;;;;;;;;;;5138120;27;20015;-73
2021/12/20 13:26:44;;;;;;;10.60;3.40;;;;;;;;;;5157026;27;20018;-74
2021/12/20 13:29:16;;;;;;;8.13;3.10;;;;;;;;;;5157004;27;20030;-73
2021/12/20 13:31:43;;;;;;;7.00;3.10;;;;;;;;;;5157006;27;20471;-73
2021/12/20 13:34:14;;;;;;;10.07;3.53;;;;;;;;;;5138360;27;20045;-73
2021/12/20 13:36:50;;;;;;;11.20;3.40;;;;;;;;;;5157216;27;20395;-73
2021/12/20 13:39:18;;;;;;;10.82;3.30;;;;;;;;;;5156981;27;20103;-73
2021/12/20 13:41:45;;;;;;;4.53;2.53;;;;;;;;;;5156952;27;20014;-73
2021/12/20 13:44:15;;;;;;;8.18;2.90;;;;;;;;;;5156703;27;20022;-73
2021/12/20 13:46:46;;;;;;;8.68;3.20;;;;;;;;;;5137849;27;20030;-73
2021/12/20 13:49:13;;;;;;;8.70;3.38;;;;;;;;;;5156656;27;20042;-73
2021/12/20 13:51:48;;;;;;;12.65;3.45;;;;;;;;;;5137526;27;20023;-73
2021/12/20 13:54:17;;;;;;;11.02;3.75;;;;;;;;;;5156471;27;20113;-73
2021/12/20 13:56:45;;;;;;;11.57;4.10;;;;;;;;;;5156288;27;20105;-73
2021/12/20 13:59:12;;;;;;;12.20;4.05;;;;;;;;;;5137525;27;20386;-74
2021/12/20 14:01:40;;;;;;;8.73;3.47;;;;;;;;;;5156200;27;20014;-73
2021/12/20 14:04:07;;;;;;;11.55;3.55;;;;;;;;;;5137660;27;20019;-73
2021/12/20 14:06:39;;;;;;;12.02;3.30;;;;;;;;;;5137363;27;20027;-73
2021/12/20 14:09:24;;;;;;;8.90;2.95;;;;;;;;;;5156179;27;20544;-73
2021/12/20 14:12:15;;;;;;;9.70;3.63;;;;;;;;;;5136745;27;20022;-73
2021/12/20 14:14:41;;;;;;;;;;;;;;;;;;5138054;27;20112;-73
2021/12/20 14:17:08;;;;;;;13.20;3.67;;;;;;;;;;5156063;27;19911;-73
2021/12/20 14:19:55;;;;;;;9.93;4.13;;;;;;;;;;5156040;27;20019;-73
2021/12/20 14:22:22;;;;;;;7.85;3.38;;;;;;;;;;5137186;27;20106;-74
2021/12/20 14:24:50;;;;;;;9.40;3.53;;;;;;;;;;5156141;27;20015;-74
2021/12/20 14:27:24;;;;;;;9.85;3.30;;;;;;;;;;5137432;27;20044;-74
2021/12/20 14:29:51;;;;;;;9.52;3.17;;;;;;;;;;5120144;27;20038;-74
2021/12/20 14:32:56;;;;;;;10.43;3.65;;;;;;;;;;5155882;27;20026;-74
2021/12/20 14:35:32;;;;;;;7.55;3.10;;;;;;;;;;5035293;28;20033;-74
2021/12/20 14:38:00;;;;;;;10.70;3.72;;;;;;;;;;5051840;28;20481;-74
2021/12/20 14:40:43;;;;;;;8.98;4.10;;;;;;;;;;5091674;27;20030;-73
2021/12/20 14:43:14;;;;;;;11.70;3.53;;;;;;;;;;5155740;27;20015;-73
2021/12/20 14:45:43;;;;;;;9.45;3.25;;;;;;;;;;5155862;27;20015;-73
2021/12/20 14:48:32;;;;;;;11.40;3.75;;;;;;;;;;5137350;27;20550;-74
2021/12/20 14:50:59;;;;;;;9.02;3.72;;;;;;;;;;5155564;27;20093;-74
2021/12/20 14:53:27;;;;;;;10.27;3.50;;;;;;;;;;5155446;27;20043;-74
2021/12/20 14:56:06;;;;;;;8.70;3.78;;;;;;;;;;5155484;27;20030;-74
2021/12/20 14:58:33;;;;;;;8.05;3.70;;;;;;;;;;5136649;27;20101;-74
2021/12/20 15:01:01;;;;;;;9.07;3.85;;;;;;;;;;5155693;27;20053;-72
2021/12/20 15:03:28;;;;;;;10.18;3.50;;;;;;;;;;5155246;27;20011;-72
2021/12/20 15:06:03;;;;;;;10.82;4.00;;;;;;;;;;5136832;27;20156;-73
2021/12/20 15:08:30;;;;;;;10.20;3.30;;;;;;;;;;5155471;27;20101;-73
2021/12/20 15:10:57;;;;;;;12.13;3.72;;;;;;;;;;5136444;27;20022;-73